Time;durP1;ratioP1;P1;durP2;ratioP2;P2;SDS_P1;SDS_P2;PMS_P1;PMS_P2;Temp;Humidity;BMP_temperature;BMP_pressure;BME280_temperature;BME280_humidity;BME280_pressure;Samples;Min_cycle;Max_cycle;Signal;HPM_P1;HPM_P2
2022/09/07 00:00:32;;;;;;;18.75;16.45;;;;;;;;;;4954349;28;20098;-83
2022/09/07 00:02:58;;;;;;;21.30;17.48;;;;;;;;;;4954034;28;20130;-83
2022/09/07 00:05:24;;;;;;;26.45;18.15;;;;;;;;;;4953496;28;20231;-84
2022/09/07 00:07:50;;;;;;;19.60;17.55;;;;;;;;;;4953978;28;20178;-84
2022/09/07 00:10:16;;;;;;;22.75;19.33;;;;;;;;;;4953746;29;20051;-83
2022/09/07 00:12:43;;;;;;;23.98;19.75;;;;;;;;;;4952369;29;20047;-83
2022/09/07 00:15:11;;;;;;;26.27;20.27;;;;;;;;;;4954352;29;20047;-83
2022/09/07 00:17:37;;;;;;;23.20;20.52;;;;;;;;;;4956833;28;20047;-83
2022/09/07 00:20:04;;;;;;;22.63;20.23;;;;;;;;;;4973358;28;20042;-83
2022/09/07 00:22:31;;;;;;;24.35;20.75;;;;;;;;;;4972095;28;20078;-83
2022/09/07 00:24:57;;;;;;;25.23;21.42;;;;;;;;;;4973306;28;20053;-83
2022/09/07 00:27:23;;;;;;;23.38;20.58;;;;;;;;;;4967837;28;20131;-83
2022/09/07 00:29:49;;;;;;;24.40;21.77;;;;;;;;;;4952341;28;20138;-83
2022/09/07 00:32:17;;;;;;;27.13;23.25;;;;;;;;;;4954596;28;20121;-83
2022/09/07 00:34:43;;;;;;;28.40;23.25;;;;;;;;;;4953782;28;20039;-83
2022/09/07 00:37:09;;;;;;;28.10;23.20;;;;;;;;;;4952378;28;20390;-83
2022/09/07 00:39:36;;;;;;;28.67;22.40;;;;;;;;;;4953994;28;20043;-83
2022/09/07 00:42:02;;;;;;;31.25;24.73;;;;;;;;;;4953253;28;20055;-83
2022/09/07 00:44:44;;;;;;;28.42;22.80;;;;;;;;;;4952058;28;20070;-84
2022/09/07 00:47:21;;;;;;;28.67;23.23;;;;;;;;;;4955500;28;20475;-83
2022/09/07 00:49:50;;;;;;;32.63;24.15;;;;;;;;;;4971287;28;20082;-83
2022/09/07 00:52:17;;;;;;;31.85;22.17;;;;;;;;;;4953657;28;20331;-83
2022/09/07 00:54:45;;;;;;;35.25;24.67;;;;;;;;;;4952877;29;20054;-83
2022/09/07 00:57:12;;;;;;;37.85;24.20;;;;;;;;;;4952487;28;20555;-83
2022/09/07 00:59:43;;;;;;;40.88;25.08;;;;;;;;;;4953513;28;20047;-83
2022/09/07 01:02:11;;;;;;;39.28;24.20;;;;;;;;;;4956242;28;20096;-83
2022/09/07 01:04:37;;;;;;;36.35;22.63;;;;;;;;;;4953729;28;20058;-83
2022/09/07 01:07:04;;;;;;;28.30;18.90;;;;;;;;;;4954701;28;20059;-84
2022/09/07 01:09:31;;;;;;;21.75;14.30;;;;;;;;;;4953782;28;20059;-84
2022/09/07 01:11:58;;;;;;;20.23;11.45;;;;;;;;;;4952442;28;20035;-83
2022/09/07 01:14:35;;;;;;;15.80;10.05;;;;;;;;;;4954327;28;20129;-83
2022/09/07 01:17:31;;;;;;;11.73;7.95;;;;;;;;;;4960640;28;20074;-83
2022/09/07 01:19:57;;;;;;;9.20;7.13;;;;;;;;;;4951530;29;20047;-84
2022/09/07 01:22:36;;;;;;;9.63;5.75;;;;;;;;;;4935678;29;20047;-83
2022/09/07 01:25:29;;;;;;;8.23;4.88;;;;;;;;;;4951759;29;20084;-83
2022/09/07 01:28:01;;;;;;;6.20;4.43;;;;;;;;;;4952430;28;20062;-83
2022/09/07 01:30:30;;;;;;;7.10;4.55;;;;;;;;;;4952787;29;20047;-83
2022/09/07 01:33:10;;;;;;;11.30;5.30;;;;;;;;;;4953858;28;20045;-83
2022/09/07 01:35:48;;;;;;;10.90;6.75;;;;;;;;;;4952776;28;20051;-84
2022/09/07 01:38:19;;;;;;;11.05;6.53;;;;;;;;;;4951543;29;20130;-83
2022/09/07 01:40:51;;;;;;;10.25;6.43;;;;;;;;;;4952019;29;20039;-84
2022/09/07 01:43:26;;;;;;;11.15;6.18;;;;;;;;;;4953022;29;20078;-84
2022/09/07 01:45:54;;;;;;;10.02;4.85;;;;;;;;;;4951135;28;20051;-83
2022/09/07 01:48:21;;;;;;;13.13;5.28;;;;;;;;;;4951777;28;20417;-83
2022/09/07 01:50:50;;;;;;;9.05;5.05;;;;;;;;;;4952944;29;20050;-83
2022/09/07 01:53:22;;;;;;;10.98;5.10;;;;;;;;;;4949183;29;20054;-84
2022/09/07 01:56:00;;;;;;;9.63;4.70;;;;;;;;;;4951349;29;20097;-86
2022/09/07 01:58:33;;;;;;;14.25;5.20;;;;;;;;;;4952336;29;20051;-86
2022/09/07 02:01:02;;;;;;;17.10;6.07;;;;;;;;;;4951869;28;20047;-86
2022/09/07 02:03:35;;;;;;;13.35;5.30;;;;;;;;;;4952258;28;20055;-86
2022/09/07 02:06:06;;;;;;;9.48;4.95;;;;;;;;;;4951686;29;20051;-84
2022/09/07 02:08:47;;;;;;;11.02;5.53;;;;;;;;;;4964538;28;20062;-83
2022/09/07 02:11:16;;;;;;;14.55;7.32;;;;;;;;;;4951391;29;20074;-84
2022/09/07 02:13:45;;;;;;;11.82;5.80;;;;;;;;;;4951141;28;20074;-85
2022/09/07 02:16:18;;;;;;;7.38;3.67;;;;;;;;;;4950257;29;20520;-85
2022/09/07 02:18:46;;;;;;;10.20;4.57;;;;;;;;;;4951677;28;20102;-85
2022/09/07 02:21:13;;;;;;;7.70;3.97;;;;;;;;;;4954376;28;20117;-83
2022/09/07 02:23:48;;;;;;;6.35;3.75;;;;;;;;;;4971343;28;20047;-83
2022/09/07 02:26:16;;;;;;;4.65;2.60;;;;;;;;;;4956591;28;20047;-83
2022/09/07 02:28:42;;;;;;;5.50;3.50;;;;;;;;;;4951545;28;20047;-83
2022/09/07 02:31:08;;;;;;;5.45;3.30;;;;;;;;;;4950064;29;20062;-83
2022/09/07 02:33:34;;;;;;;5.57;3.78;;;;;;;;;;4952028;29;20066;-83
2022/09/07 02:36:01;;;;;;;6.20;4.25;;;;;;;;;;4952237;28;20416;-82
2022/09/07 02:38:27;;;;;;;7.38;4.38;;;;;;;;;;4968283;28;20047;-82
2022/09/07 02:40:54;;;;;;;16.27;4.85;;;;;;;;;;4956833;28;20467;-82
2022/09/07 02:43:21;;;;;;;7.88;4.20;;;;;;;;;;4951895;29;20129;-82
2022/09/07 02:45:53;;;;;;;7.07;3.63;;;;;;;;;;4949258;28;20522;-82
2022/09/07 02:48:31;;;;;;;4.60;3.45;;;;;;;;;;4951966;29;20035;-83
2022/09/07 02:51:01;;;;;;;7.03;4.55;;;;;;;;;;4951403;28;20054;-83
2022/09/07 02:53:42;;;;;;;8.57;4.10;;;;;;;;;;4951232;28;20043;-83
2022/09/07 02:56:08;;;;;;;7.45;4.40;;;;;;;;;;4949934;29;20126;-82
2022/09/07 02:58:47;;;;;;;7.20;4.97;;;;;;;;;;4950066;28;20040;-83
2022/09/07 03:01:13;;;;;;;11.05;4.53;;;;;;;;;;4942887;28;20055;-82
2022/09/07 03:03:51;;;;;;;7.30;4.45;;;;;;;;;;4934483;29;20097;-82
2022/09/07 03:06:29;;;;;;;7.13;4.15;;;;;;;;;;4951616;29;20059;-83
2022/09/07 03:08:57;;;;;;;7.85;4.10;;;;;;;;;;4969235;28;20476;-82
2022/09/07 03:11:23;;;;;;;7.93;4.30;;;;;;;;;;4970778;28;20121;-83
2022/09/07 03:13:49;;;;;;;8.40;4.40;;;;;;;;;;4953267;28;20047;-82
2022/09/07 03:16:16;;;;;;;7.47;4.30;;;;;;;;;;4951529;28;20105;-82
2022/09/07 03:18:42;;;;;;;7.80;4.47;;;;;;;;;;4952647;29;20039;-83
2022/09/07 03:21:09;;;;;;;7.00;4.03;;;;;;;;;;4951053;29;20053;-83
2022/09/07 03:23:36;;;;;;;7.72;4.50;;;;;;;;;;4967654;28;20058;-83
2022/09/07 03:26:03;;;;;;;9.98;4.80;;;;;;;;;;4972314;28;20077;-83
2022/09/07 03:28:29;;;;;;;8.35;5.15;;;;;;;;;;4969692;28;20074;-83
2022/09/07 03:30:55;;;;;;;9.40;4.75;;;;;;;;;;4950884;28;20047;-83
2022/09/07 03:33:21;;;;;;;13.20;5.38;;;;;;;;;;4970843;28;20047;-83
2022/09/07 03:35:56;;;;;;;12.07;5.13;;;;;;;;;;4961924;28;20054;-83
2022/09/07 03:38:22;;;;;;;7.25;4.60;;;;;;;;;;4955285;29;20082;-83
2022/09/07 03:40:56;;;;;;;10.63;4.43;;;;;;;;;;4954051;29;20142;-83
2022/09/07 03:43:23;;;;;;;11.63;4.97;;;;;;;;;;4968725;28;20047;-84
2022/09/07 03:45:49;;;;;;;13.55;5.57;;;;;;;;;;4957670;28;20082;-84
2022/09/07 03:48:16;;;;;;;16.58;5.32;;;;;;;;;;4954813;29;20130;-84
2022/09/07 03:50:42;;;;;;;14.55;4.90;;;;;;;;;;4953808;28;20686;-83
2022/09/07 03:53:08;;;;;;;10.27;4.65;;;;;;;;;;4953266;29;20051;-84
2022/09/07 03:55:34;;;;;;;9.38;4.43;;;;;;;;;;4953424;28;20054;-84
2022/09/07 03:58:00;;;;;;;9.00;3.90;;;;;;;;;;4953968;29;20043;-84
2022/09/07 04:00:26;;;;;;;12.07;4.20;;;;;;;;;;4953171;28;20042;-83
2022/09/07 04:02:52;;;;;;;10.68;3.92;;;;;;;;;;4954636;29;20149;-84
2022/09/07 04:05:18;;;;;;;5.88;3.38;;;;;;;;;;4969655;28;20077;-84
2022/09/07 04:07:44;;;;;;;8.25;3.42;;;;;;;;;;4969811;28;20129;-84
2022/09/07 04:10:10;;;;;;;8.23;3.80;;;;;;;;;;4954161;29;20388;-84
2022/09/07 04:12:36;;;;;;;7.43;3.60;;;;;;;;;;4952849;29;20047;-84
2022/09/07 04:15:02;;;;;;;8.05;3.45;;;;;;;;;;4953244;28;20043;-83
2022/09/07 04:17:28;;;;;;;10.60;4.03;;;;;;;;;;4954581;28;20047;-83
2022/09/07 04:19:54;;;;;;;11.80;4.63;;;;;;;;;;4967924;28;20101;-83
2022/09/07 04:22:20;;;;;;;16.27;4.63;;;;;;;;;;4959052;28;20411;-84
2022/09/07 04:24:46;;;;;;;28.10;5.75;;;;;;;;;;4952959;29;20043;-84
2022/09/07 04:27:12;;;;;;;12.73;4.43;;;;;;;;;;4952035;28;20043;-84
2022/09/07 04:29:38;;;;;;;13.65;5.63;;;;;;;;;;4952750;28;20047;-84
2022/09/07 04:32:04;;;;;;;13.63;4.88;;;;;;;;;;4953776;29;20043;-84
2022/09/07 04:34:30;;;;;;;13.18;4.63;;;;;;;;;;4966735;28;20491;-84
2022/09/07 04:36:56;;;;;;;18.10;5.90;;;;;;;;;;4972868;28;20105;-84
2022/09/07 04:39:22;;;;;;;11.25;4.78;;;;;;;;;;4972236;28;20054;-84
2022/09/07 04:41:48;;;;;;;13.50;4.63;;;;;;;;;;4962040;28;20039;-84
2022/09/07 04:44:14;;;;;;;12.30;4.38;;;;;;;;;;4951525;29;20444;-83
2022/09/07 04:46:40;;;;;;;9.55;3.88;;;;;;;;;;4953789;28;20047;-84
2022/09/07 04:49:08;;;;;;;10.27;4.15;;;;;;;;;;4963247;28;20043;-84
2022/09/07 04:51:34;;;;;;;11.25;4.30;;;;;;;;;;4971844;28;20051;-84
2022/09/07 04:54:01;;;;;;;10.15;4.07;;;;;;;;;;4971654;28;20121;-84
2022/09/07 04:56:28;;;;;;;6.93;3.70;;;;;;;;;;4972656;28;20073;-84
2022/09/07 04:58:54;;;;;;;10.25;3.67;;;;;;;;;;4953448;28;20154;-84
2022/09/07 05:01:21;;;;;;;11.57;4.72;;;;;;;;;;4953954;28;20048;-84
2022/09/07 05:03:47;;;;;;;12.15;4.50;;;;;;;;;;4950732;28;20555;-84
2022/09/07 05:06:14;;;;;;;8.18;4.20;;;;;;;;;;4951776;28;20511;-84
2022/09/07 05:08:41;;;;;;;12.23;4.80;;;;;;;;;;4952060;29;20055;-84
2022/09/07 05:11:08;;;;;;;10.93;5.13;;;;;;;;;;4952949;28;20134;-85
2022/09/07 05:13:35;;;;;;;14.43;4.88;;;;;;;;;;4952173;29;20047;-83
2022/09/07 05:16:06;;;;;;;14.77;5.57;;;;;;;;;;4952667;29;20091;-82
2022/09/07 05:18:32;;;;;;;9.88;4.85;;;;;;;;;;4964074;28;20054;-84
2022/09/07 05:21:08;;;;;;;9.70;5.05;;;;;;;;;;4970976;28;20050;-84
2022/09/07 05:23:35;;;;;;;13.23;4.85;;;;;;;;;;4971235;28;20057;-84
2022/09/07 05:26:01;;;;;;;9.25;5.10;;;;;;;;;;4974244;28;20107;-84
2022/09/07 05:28:27;;;;;;;9.23;5.20;;;;;;;;;;4970920;28;20083;-84
2022/09/07 05:30:53;;;;;;;9.68;5.43;;;;;;;;;;4952394;29;20118;-85
2022/09/07 05:33:19;;;;;;;11.98;5.07;;;;;;;;;;4963304;28;20381;-84
2022/09/07 05:35:55;;;;;;;10.20;4.95;;;;;;;;;;4972772;28;20097;-84
2022/09/07 05:38:21;;;;;;;9.85;5.20;;;;;;;;;;4974167;28;20054;-85
2022/09/07 05:40:46;;;;;;;9.95;4.97;;;;;;;;;;4958716;28;20039;-85
2022/09/07 05:43:13;;;;;;;8.23;4.57;;;;;;;;;;4952655;29;20055;-84
2022/09/07 05:45:39;;;;;;;8.95;4.60;;;;;;;;;;4952949;29;20039;-85
2022/09/07 05:48:05;;;;;;;7.60;5.07;;;;;;;;;;4951165;29;20066;-84
2022/09/07 05:50:31;;;;;;;8.20;4.70;;;;;;;;;;4952842;29;20051;-84
2022/09/07 05:52:58;;;;;;;8.13;4.97;;;;;;;;;;4951232;28;20039;-84
2022/09/07 05:55:24;;;;;;;7.55;4.72;;;;;;;;;;4949599;28;20097;-84
2022/09/07 05:57:50;;;;;;;11.02;4.90;;;;;;;;;;4950820;29;20050;-88
2022/09/07 06:00:16;;;;;;;5.72;5.10;;;;;;;;;;4951453;29;20047;-83
2022/09/07 06:02:42;;;;;;;13.38;5.50;;;;;;;;;;4952831;29;20051;-84
2022/09/07 06:05:09;;;;;;;12.65;5.47;;;;;;;;;;4950399;28;20125;-84
2022/09/07 06:07:36;;;;;;;9.13;5.50;;;;;;;;;;4953867;28;20064;-88
2022/09/07 06:10:02;;;;;;;6.15;5.10;;;;;;;;;;4948876;28;20051;-84
2022/09/07 06:12:28;;;;;;;10.50;5.72;;;;;;;;;;4952211;29;20043;-83
2022/09/07 06:14:54;;;;;;;10.15;5.90;;;;;;;;;;4951540;29;20047;-83
2022/09/07 06:17:20;;;;;;;9.25;5.63;;;;;;;;;;4952333;29;20047;-84
2022/09/07 06:19:46;;;;;;;10.55;6.22;;;;;;;;;;4951354;29;20054;-84
2022/09/07 06:22:12;;;;;;;9.27;5.90;;;;;;;;;;4951775;28;20515;-82
2022/09/07 06:24:38;;;;;;;9.73;6.10;;;;;;;;;;4953481;28;20046;-82
2022/09/07 06:27:04;;;;;;;7.55;6.13;;;;;;;;;;4969334;28;20050;-83
2022/09/07 06:29:30;;;;;;;8.60;6.32;;;;;;;;;;4962297;28;20043;-83
2022/09/07 06:31:56;;;;;;;8.85;6.20;;;;;;;;;;4951147;28;20055;-82
2022/09/07 06:34:22;;;;;;;8.00;5.97;;;;;;;;;;4950570;28;20051;-82
2022/09/07 06:36:48;;;;;;;9.77;6.60;;;;;;;;;;4952018;28;20127;-82
2022/09/07 06:39:14;;;;;;;8.32;6.80;;;;;;;;;;4950413;29;20478;-82
2022/09/07 06:41:40;;;;;;;10.73;6.78;;;;;;;;;;4951677;29;20055;-82
2022/09/07 06:44:06;;;;;;;8.63;6.25;;;;;;;;;;4953836;28;20127;-82
2022/09/07 06:46:32;;;;;;;11.10;6.53;;;;;;;;;;4966380;28;20129;-83
2022/09/07 06:48:58;;;;;;;11.50;6.97;;;;;;;;;;4950503;28;20035;-82
2022/09/07 06:51:28;;;;;;;10.85;7.03;;;;;;;;;;4951860;29;20420;-82
2022/09/07 06:53:55;;;;;;;8.82;7.45;;;;;;;;;;4950753;28;20073;-82
2022/09/07 06:56:22;;;;;;;10.40;7.57;;;;;;;;;;4949880;29;20055;-82
2022/09/07 06:58:52;;;;;;;10.05;8.13;;;;;;;;;;4951301;28;20053;-82
2022/09/07 07:01:20;;;;;;;11.88;8.93;;;;;;;;;;4957152;28;20049;-82
2022/09/07 07:03:47;;;;;;;11.35;9.52;;;;;;;;;;4950452;29;20098;-82
2022/09/07 07:06:13;;;;;;;13.93;9.60;;;;;;;;;;4949510;28;20309;-83
2022/09/07 07:08:40;;;;;;;12.27;10.40;;;;;;;;;;4952465;28;20113;-83
2022/09/07 07:11:07;;;;;;;12.57;10.27;;;;;;;;;;4951208;29;20097;-83
2022/09/07 07:13:34;;;;;;;11.88;10.50;;;;;;;;;;4943871;28;20043;-84
2022/09/07 07:16:01;;;;;;;14.63;11.10;;;;;;;;;;4950498;29;20130;-84
2022/09/07 07:18:27;;;;;;;14.23;10.60;;;;;;;;;;4934946;29;20432;-84
2022/09/07 07:20:53;;;;;;;14.10;11.68;;;;;;;;;;4933656;29;20106;-83
2022/09/07 07:23:19;;;;;;;15.75;12.93;;;;;;;;;;4955143;28;20121;-83
2022/09/07 07:25:45;;;;;;;15.30;11.90;;;;;;;;;;4952587;28;20097;-83
2022/09/07 07:28:12;;;;;;;15.50;12.75;;;;;;;;;;4951303;28;20512;-83
2022/09/07 07:30:38;;;;;;;15.02;12.82;;;;;;;;;;4949795;28;20090;-83
2022/09/07 07:33:07;;;;;;;15.75;13.90;;;;;;;;;;4953605;28;20043;-83
2022/09/07 07:35:34;;;;;;;16.38;14.02;;;;;;;;;;4950440;29;20523;-82
2022/09/07 07:38:00;;;;;;;17.52;15.18;;;;;;;;;;4952587;28;20460;-84
2022/09/07 07:40:26;;;;;;;18.33;15.38;;;;;;;;;;4951052;28;20043;-82
2022/09/07 07:42:52;;;;;;;18.05;14.45;;;;;;;;;;4951274;28;20083;-88
2022/09/07 07:45:18;;;;;;;18.35;15.65;;;;;;;;;;4952410;28;20105;-83
2022/09/07 07:47:49;;;;;;;19.00;15.82;;;;;;;;;;4955649;28;20051;-83
2022/09/07 07:50:15;;;;;;;19.45;16.45;;;;;;;;;;4948577;28;20052;-83
2022/09/07 07:52:41;;;;;;;20.20;16.50;;;;;;;;;;4949560;29;20043;-83
2022/09/07 07:55:07;;;;;;;18.88;15.63;;;;;;;;;;4950299;29;20039;-83
2022/09/07 07:57:33;;;;;;;19.75;16.83;;;;;;;;;;4947810;28;20066;-83
2022/09/07 07:59:59;;;;;;;21.27;17.27;;;;;;;;;;4950410;28;20158;-86
2022/09/07 08:02:25;;;;;;;18.60;16.48;;;;;;;;;;4949942;29;20059;-84
2022/09/07 08:04:51;;;;;;;18.08;15.52;;;;;;;;;;4951085;28;20052;-83
2022/09/07 08:07:18;;;;;;;19.20;16.45;;;;;;;;;;4949635;29;20090;-83
2022/09/07 08:09:45;;;;;;;22.00;16.58;;;;;;;;;;4949820;28;20146;-83
2022/09/07 08:12:12;;;;;;;22.33;17.95;;;;;;;;;;4950514;28;20130;-83
2022/09/07 08:14:39;;;;;;;17.55;15.23;;;;;;;;;;4950830;28;20476;-83
2022/09/07 08:17:09;;;;;;;20.13;17.08;;;;;;;;;;4951135;28;20078;-83
2022/09/07 08:19:35;;;;;;;20.48;16.85;;;;;;;;;;4954394;28;20051;-83
2022/09/07 08:22:02;;;;;;;19.63;16.85;;;;;;;;;;4949679;28;20048;-83
2022/09/07 08:24:28;;;;;;;20.95;16.23;;;;;;;;;;4951211;28;20530;-83
2022/09/07 08:26:54;;;;;;;18.75;16.40;;;;;;;;;;4973364;28;20054;-83
2022/09/07 08:29:20;;;;;;;20.75;16.25;;;;;;;;;;4958321;28;20039;-83
2022/09/07 08:31:47;;;;;;;19.98;16.52;;;;;;;;;;4954272;29;20047;-83
2022/09/07 08:34:13;;;;;;;21.00;16.40;;;;;;;;;;4951530;29;20067;-83
2022/09/07 08:36:39;;;;;;;18.77;16.45;;;;;;;;;;4959249;28;20055;-82
2022/09/07 08:39:05;;;;;;;17.02;14.95;;;;;;;;;;4951588;28;20444;-83
2022/09/07 08:41:40;;;;;;;19.63;17.13;;;;;;;;;;4949211;28;20039;-83
2022/09/07 08:44:24;;;;;;;17.52;15.63;;;;;;;;;;4945561;28;20071;-83
2022/09/07 08:46:50;;;;;;;17.45;14.82;;;;;;;;;;4934464;29;20343;-84
2022/09/07 08:49:22;;;;;;;15.85;13.73;;;;;;;;;;4950076;28;20444;-88
2022/09/07 08:51:52;;;;;;;16.58;13.98;;;;;;;;;;4952755;29;20457;-87
2022/09/07 08:54:18;;;;;;;16.42;14.65;;;;;;;;;;4954199;28;20051;-88
2022/09/07 08:56:52;;;;;;;15.85;13.98;;;;;;;;;;4953593;28;20047;-89
2022/09/07 08:59:26;;;;;;;15.60;13.65;;;;;;;;;;4951891;28;20051;-88
2022/09/07 09:01:52;;;;;;;14.98;12.75;;;;;;;;;;4952246;29;20047;-90
2022/09/07 09:04:22;;;;;;;14.27;12.82;;;;;;;;;;4967404;28;20043;-86
2022/09/07 09:06:57;;;;;;;14.05;12.02;;;;;;;;;;4934195;29;20588;-86
2022/09/07 09:09:39;;;;;;;14.15;12.32;;;;;;;;;;4943519;28;20469;-85
2022/09/07 09:12:18;;;;;;;13.93;12.13;;;;;;;;;;4952064;28;20119;-88
2022/09/07 09:14:44;;;;;;;12.70;11.40;;;;;;;;;;4985496;28;20047;-87
2022/09/07 09:17:19;;;;;;;13.85;12.40;;;;;;;;;;4971982;28;20129;-87
2022/09/07 09:19:51;;;;;;;13.70;12.23;;;;;;;;;;4971497;28;20074;-87
2022/09/07 09:22:18;;;;;;;13.35;11.95;;;;;;;;;;4971690;28;20051;-88
2022/09/07 09:24:49;;;;;;;13.43;12.02;;;;;;;;;;4955676;28;20079;-95
2022/09/07 09:27:15;;;;;;;13.77;12.48;;;;;;;;;;4958580;28;20523;-94
2022/09/07 09:29:41;;;;;;;11.75;10.60;;;;;;;;;;4958011;28;20134;-96
2022/09/07 09:35:08;;;;;;;11.95;10.70;;;;;;;;;;5736881;23;20082;-95
2022/09/07 09:37:36;;;;;;;11.57;10.48;;;;;;;;;;4987268;28;20097;-95
2022/09/07 09:40:02;;;;;;;10.45;9.32;;;;;;;;;;4988338;28;20093;-95
2022/09/07 09:42:29;;;;;;;8.95;8.05;;;;;;;;;;4987607;28;20085;-95
2022/09/07 09:45:01;;;;;;;7.63;6.82;;;;;;;;;;4998396;28;20100;-96
2022/09/07 09:47:32;;;;;;;7.80;7.00;;;;;;;;;;4989842;28;20049;-90
2022/09/07 09:50:00;;;;;;;8.95;6.78;;;;;;;;;;4978704;28;20050;-90
2022/09/07 09:52:28;;;;;;;6.97;5.90;;;;;;;;;;4972826;28;20042;-87
2022/09/07 09:54:55;;;;;;;8.02;7.22;;;;;;;;;;4978329;28;20046;-90
2022/09/07 09:57:40;;;;;;;8.02;7.20;;;;;;;;;;4992889;28;20487;-87
2022/09/07 10:00:14;;;;;;;7.95;7.10;;;;;;;;;;4990389;28;20161;-87
2022/09/07 10:02:40;;;;;;;7.38;6.20;;;;;;;;;;4972159;28;20047;-87
2022/09/07 10:05:26;;;;;;;6.65;5.63;;;;;;;;;;4984772;28;20372;-87
2022/09/07 10:07:52;;;;;;;6.10;5.50;;;;;;;;;;4980762;28;20142;-86
2022/09/07 10:10:18;;;;;;;6.72;6.03;;;;;;;;;;4971715;28;20035;-87
2022/09/07 10:12:45;;;;;;;8.30;7.07;;;;;;;;;;4972508;28;20089;-87
2022/09/07 10:15:30;;;;;;;7.35;6.60;;;;;;;;;;4989842;28;20332;-90
2022/09/07 10:17:57;;;;;;;7.60;6.90;;;;;;;;;;4990860;28;20072;-87
2022/09/07 10:20:32;;;;;;;7.22;5.72;;;;;;;;;;4991116;28;20109;-87
2022/09/07 10:22:59;;;;;;;7.27;6.30;;;;;;;;;;4985383;28;20054;-87
2022/09/07 10:25:27;;;;;;;6.72;5.55;;;;;;;;;;4978082;28;20227;-87
2022/09/07 10:28:01;;;;;;;6.45;5.72;;;;;;;;;;4970221;28;20046;-89
2022/09/07 10:30:29;;;;;;;5.60;5.00;;;;;;;;;;4976496;28;20050;-87
2022/09/07 10:32:55;;;;;;;4.47;4.05;;;;;;;;;;4990197;28;20050;-87
2022/09/07 10:35:24;;;;;;;4.07;3.67;;;;;;;;;;4985598;28;20097;-88
2022/09/07 10:37:59;;;;;;;4.88;4.35;;;;;;;;;;4989714;28;20124;-88
2022/09/07 10:40:29;;;;;;;6.18;4.45;;;;;;;;;;4979459;28;20096;-88
2022/09/07 10:43:16;;;;;;;6.55;4.68;;;;;;;;;;4989913;28;20498;-88
2022/09/07 10:45:52;;;;;;;6.28;4.85;;;;;;;;;;4990122;28;20097;-87
2022/09/07 10:48:18;;;;;;;7.10;4.70;;;;;;;;;;4982738;28;20110;-88
2022/09/07 10:50:44;;;;;;;4.75;4.25;;;;;;;;;;4982629;28;20408;-86
2022/09/07 10:53:31;;;;;;;4.63;3.53;;;;;;;;;;4989675;28;20054;-86
2022/09/07 10:55:57;;;;;;;3.70;3.35;;;;;;;;;;4989757;28;20078;-85
2022/09/07 10:58:30;;;;;;;5.10;3.70;;;;;;;;;;4984433;28;20128;-86
2022/09/07 11:00:56;;;;;;;4.07;3.67;;;;;;;;;;4982492;28;20042;-86
2022/09/07 11:03:36;;;;;;;4.82;3.92;;;;;;;;;;4970960;28;20397;-86
2022/09/07 11:06:17;;;;;;;5.22;3.92;;;;;;;;;;4987834;28;20061;-86
2022/09/07 11:08:43;;;;;;;7.53;4.50;;;;;;;;;;4983611;28;20050;-86
2022/09/07 11:11:20;;;;;;;4.45;3.90;;;;;;;;;;4969809;28;20503;-86
2022/09/07 11:13:50;;;;;;;3.92;3.30;;;;;;;;;;4981657;28;20046;-87
2022/09/07 11:16:19;;;;;;;3.97;3.50;;;;;;;;;;4984105;28;20064;-86
2022/09/07 11:18:57;;;;;;;3.72;3.10;;;;;;;;;;4990106;28;20046;-86
2022/09/07 11:21:27;;;;;;;3.25;2.83;;;;;;;;;;4988758;28;20411;-86
2022/09/07 11:23:55;;;;;;;3.47;3.10;;;;;;;;;;4987788;28;20506;-86
2022/09/07 11:26:39;;;;;;;3.42;3.13;;;;;;;;;;4976490;28;20057;-86
2022/09/07 11:29:05;;;;;;;3.92;3.53;;;;;;;;;;4987037;28;20049;-87
2022/09/07 11:31:31;;;;;;;3.78;3.00;;;;;;;;;;4989734;28;20053;-87
2022/09/07 11:34:16;;;;;;;3.80;3.25;;;;;;;;;;4989747;28;20507;-86
2022/09/07 11:36:45;;;;;;;3.67;2.92;;;;;;;;;;4988525;28;20226;-86
2022/09/07 11:39:17;;;;;;;4.97;3.45;;;;;;;;;;4977743;28;20553;-87
2022/09/07 11:41:48;;;;;;;4.00;3.10;;;;;;;;;;4968931;28;20047;-87
2022/09/07 11:44:17;;;;;;;4.68;3.28;;;;;;;;;;4953173;28;20057;-87
2022/09/07 11:46:46;;;;;;;4.15;2.90;;;;;;;;;;4981666;28;20495;-86
2022/09/07 11:49:23;;;;;;;3.50;3.05;;;;;;;;;;4989694;28;20105;-87
2022/09/07 11:51:53;;;;;;;3.25;2.78;;;;;;;;;;4991834;28;20053;-88
2022/09/07 11:54:22;;;;;;;5.10;3.38;;;;;;;;;;4994939;28;20046;-86
2022/09/07 11:56:52;;;;;;;3.20;2.90;;;;;;;;;;4990070;28;20049;-88
2022/09/07 11:59:21;;;;;;;6.47;3.20;;;;;;;;;;4992426;28;20042;-86
2022/09/07 12:01:58;;;;;;;3.72;2.90;;;;;;;;;;4991308;28;20046;-86
2022/09/07 12:04:30;;;;;;;5.85;2.78;;;;;;;;;;4982505;28;20054;-86
2022/09/07 12:06:55;;;;;;;3.42;2.70;;;;;;;;;;4995346;28;20056;-85
2022/09/07 12:09:21;;;;;;;4.47;2.50;;;;;;;;;;4992552;28;20046;-86
2022/09/07 12:12:06;;;;;;;3.50;2.30;;;;;;;;;;4981080;28;20248;-87
2022/09/07 12:14:51;;;;;;;5.78;2.90;;;;;;;;;;4974809;28;20488;-86
2022/09/07 12:17:25;;;;;;;3.55;2.83;;;;;;;;;;4974181;28;20057;-86
2022/09/07 12:20:10;;;;;;;2.88;2.60;;;;;;;;;;4973730;28;20516;-86
2022/09/07 12:22:36;;;;;;;3.80;2.70;;;;;;;;;;4977057;28;20042;-86
2022/09/07 12:25:10;;;;;;;4.43;2.67;;;;;;;;;;4992930;28;20081;-86
2022/09/07 12:27:37;;;;;;;5.70;2.90;;;;;;;;;;4972384;28;20416;-86
2022/09/07 12:30:03;;;;;;;4.07;2.63;;;;;;;;;;4972093;28;20047;-86
2022/09/07 12:32:50;;;;;;;3.72;2.47;;;;;;;;;;4974842;28;20046;-84
2022/09/07 12:35:28;;;;;;;3.03;2.50;;;;;;;;;;4973720;28;20058;-87
2022/09/07 12:37:59;;;;;;;3.47;2.20;;;;;;;;;;4974305;28;20058;-88
2022/09/07 12:43:12;;;;;;;3.25;2.05;;;;;;;;;;4973818;28;20051;-87
2022/09/07 12:45:38;;;;;;;4.22;2.40;;;;;;;;;;4972264;28;20042;-88
2022/09/07 12:48:04;;;;;;;2.80;2.40;;;;;;;;;;4971776;28;20325;-88
2022/09/07 12:50:34;;;;;;;2.65;2.38;;;;;;;;;;4973220;28;20088;-86
2022/09/07 12:53:12;;;;;;;3.38;2.50;;;;;;;;;;4979198;28;20463;-88
2022/09/07 12:56:01;;;;;;;3.47;2.38;;;;;;;;;;4992129;28;20077;-87
2022/09/07 12:58:37;;;;;;;3.20;2.20;;;;;;;;;;4979296;28;20054;-87
2022/09/07 13:01:12;;;;;;;3.28;2.30;;;;;;;;;;4979429;28;20069;-88
2022/09/07 13:03:38;;;;;;;3.08;2.08;;;;;;;;;;4986716;28;20081;-87
2022/09/07 13:06:29;;;;;;;4.43;2.42;;;;;;;;;;4992160;28;20387;-87
2022/09/07 13:09:04;;;;;;;7.47;3.10;;;;;;;;;;4990397;28;20133;-89
2022/09/07 13:11:32;;;;;;;2.45;2.17;;;;;;;;;;4974566;28;20546;-87
2022/09/07 13:14:00;;;;;;;3.30;2.50;;;;;;;;;;4984553;28;20396;-87
2022/09/07 13:16:32;;;;;;;3.25;2.28;;;;;;;;;;4984635;28;20081;-87
2022/09/07 13:19:02;;;;;;;3.00;2.50;;;;;;;;;;4990829;28;20050;-87
2022/09/07 13:21:28;;;;;;;3.58;2.28;;;;;;;;;;4975420;28;20047;-88
2022/09/07 13:24:15;;;;;;;3.20;2.40;;;;;;;;;;4974678;28;20373;-87
2022/09/07 13:27:00;;;;;;;2.80;2.10;;;;;;;;;;4973209;28;20126;-86
2022/09/07 13:29:35;;;;;;;3.78;2.33;;;;;;;;;;4970883;28;20058;-86
2022/09/07 13:32:01;;;;;;;;;;;;;;;;;;4974266;28;20178;-86
2022/09/07 13:34:27;;;;;;;;;;;;;;;;;;4976692;28;20008;-86
2022/09/07 13:36:53;;;;;;;3.17;2.33;;;;;;;;;;4972353;28;19926;-86
2022/09/07 13:39:20;;;;;;;3.70;2.45;;;;;;;;;;4972187;28;20140;-86
2022/09/07 13:41:48;;;;;;;2.65;2.15;;;;;;;;;;4970661;28;20061;-86
2022/09/07 13:44:18;;;;;;;3.17;2.15;;;;;;;;;;4983843;28;20065;-86
2022/09/07 13:46:57;;;;;;;3.97;2.75;;;;;;;;;;4981077;28;20058;-86
2022/09/07 13:49:42;;;;;;;3.47;2.60;;;;;;;;;;4989766;28;20054;-87
2022/09/07 13:52:08;;;;;;;2.55;2.30;;;;;;;;;;4977696;28;20057;-87
2022/09/07 13:54:53;;;;;;;4.90;2.50;;;;;;;;;;4971788;28;20043;-88
2022/09/07 13:57:25;;;;;;;7.03;2.70;;;;;;;;;;4970672;28;20103;-86
2022/09/07 13:59:52;;;;;;;4.07;2.47;;;;;;;;;;4970915;28;20046;-87
2022/09/07 14:02:23;;;;;;;4.80;2.50;;;;;;;;;;4972341;28;20046;-84
2022/09/07 14:04:53;;;;;;;5.63;2.83;;;;;;;;;;4974851;28;20043;-85
2022/09/07 14:07:22;;;;;;;2.40;2.20;;;;;;;;;;4974234;28;20055;-85
2022/09/07 14:09:48;;;;;;;2.38;1.90;;;;;;;;;;4970883;28;20070;-88
2022/09/07 14:12:15;;;;;;;5.47;2.20;;;;;;;;;;4970411;28;20549;-84
2022/09/07 14:14:41;;;;;;;3.53;2.25;;;;;;;;;;4981390;28;20082;-85
2022/09/07 14:17:12;;;;;;;4.15;2.63;;;;;;;;;;4981809;28;20054;-85
2022/09/07 14:19:40;;;;;;;2.50;2.30;;;;;;;;;;4989475;28;20081;-84
2022/09/07 14:22:16;;;;;;;4.28;2.50;;;;;;;;;;4985631;28;20046;-83
2022/09/07 14:24:42;;;;;;;;;;;;;;;;;;4973311;28;20055;-85
2022/09/07 14:27:08;;;;;;;;;;;;;;;;;;4971583;28;20290;-87
2022/09/07 14:29:35;;;;;;;3.33;2.45;;;;;;;;;;4988859;28;19929;-87
2022/09/07 14:32:03;;;;;;;2.53;2.20;;;;;;;;;;4960098;28;20046;-87
2022/09/07 14:34:34;;;;;;;3.00;2.30;;;;;;;;;;4971048;28;20492;-86
2022/09/07 14:37:02;;;;;;;4.68;2.35;;;;;;;;;;4970419;28;20061;-84
2022/09/07 14:39:29;;;;;;;3.35;2.35;;;;;;;;;;4972397;28;20047;-86
2022/09/07 14:41:57;;;;;;;4.10;2.47;;;;;;;;;;4970400;28;20046;-84
2022/09/07 14:44:32;;;;;;;4.35;2.60;;;;;;;;;;4975905;28;20058;-85
2022/09/07 14:47:00;;;;;;;3.15;2.38;;;;;;;;;;4970584;28;20476;-85
2022/09/07 14:49:26;;;;;;;3.97;2.35;;;;;;;;;;4970858;28;20399;-85
2022/09/07 14:51:53;;;;;;;3.88;2.63;;;;;;;;;;4969032;28;20047;-84
2022/09/07 14:54:21;;;;;;;3.45;2.50;;;;;;;;;;4970482;28;20049;-82